Time;durP1;ratioP1;P1;durP2;ratioP2;P2;SDS_P1;SDS_P2;PMS_P1;PMS_P2;Temp;Humidity;BMP_temperature;BMP_pressure;BME280_temperature;BME280_humidity;BME280_pressure;Samples;Min_cycle;Max_cycle;Signal;HPM_P1;HPM_P2
2023/07/05 00:00:40;;;;;;;10.30;6.22;;;;;;;21.26;64.56;99129.75;4405760;32;34366;-88
2023/07/05 00:03:08;;;;;;;12.73;6.22;;;;;;;21.23;64.32;99133.34;4404568;32;33380;-89
2023/07/05 00:05:36;;;;;;;10.70;6.28;;;;;;;21.17;64.16;99122.97;4404573;32;33742;-91
2023/07/05 00:08:05;;;;;;;12.50;6.72;;;;;;;21.23;63.70;99128.06;4379779;32;34799;-91
2023/07/05 00:10:32;;;;;;;11.20;6.03;;;;;;;21.11;64.04;99134.56;4400246;32;34260;-91
2023/07/05 00:13:00;;;;;;;11.77;5.95;;;;;;;21.17;63.80;99133.50;4389247;32;33533;-91
2023/07/05 00:15:30;;;;;;;12.48;6.75;;;;;;;21.26;63.49;99125.34;4391959;32;33870;-89
2023/07/05 00:17:58;;;;;;;11.65;6.25;;;;;;;21.22;63.64;99121.06;4392172;32;33843;-88
2023/07/05 00:20:26;;;;;;;15.35;6.25;;;;;;;21.27;63.48;99123.56;4379587;32;33532;-87
2023/07/05 00:22:54;;;;;;;11.88;6.50;;;;;;;21.19;64.06;99126.44;4400764;32;33225;-88
2023/07/05 00:25:21;;;;;;;11.50;6.57;;;;;;;21.12;64.42;99125.75;4405881;32;33812;-91
2023/07/05 00:27:49;;;;;;;9.68;6.50;;;;;;;21.09;64.25;99125.84;4405826;32;33876;-88
2023/07/05 00:30:17;;;;;;;11.57;6.30;;;;;;;21.08;63.90;99118.00;4397594;32;33892;-90
2023/07/05 00:32:45;;;;;;;9.38;6.07;;;;;;;21.16;63.38;99121.25;4399683;32;33054;-88
2023/07/05 00:35:14;;;;;;;12.18;6.50;;;;;;;21.24;62.94;99124.50;4390549;32;33408;-87
2023/07/05 00:37:42;;;;;;;11.52;6.30;;;;;;;21.20;63.10;99122.03;4388724;32;34065;-92
2023/07/05 00:40:10;;;;;;;8.48;5.57;;;;;;;21.04;63.68;99119.00;4390480;32;33437;-91
2023/07/05 00:42:38;;;;;;;10.48;6.28;;;;;;;21.13;63.19;99122.19;4373085;32;32678;-88
2023/07/05 00:45:08;;;;;;;11.10;6.30;;;;;;;21.10;63.30;99124.06;4392018;32;34749;-87
2023/07/05 00:47:39;;;;;;;12.85;6.87;;;;;;;20.98;63.42;99127.09;4392865;32;34993;-87
2023/07/05 00:50:23;;;;;;;10.48;7.18;;;;;;;20.93;63.28;99124.59;4386135;32;34631;-87
2023/07/05 00:52:51;;;;;;;10.25;6.00;;;;;;;21.08;62.90;99128.53;4377062;32;33425;-92
2023/07/05 00:55:18;;;;;;;11.07;6.15;;;;;;;21.01;62.80;99127.84;4390438;32;34533;-89
2023/07/05 00:57:46;;;;;;;9.27;5.70;;;;;;;20.87;63.27;99130.91;4379495;32;34201;-92
2023/07/05 01:00:16;;;;;;;11.88;6.43;;;;;;;20.85;63.59;99119.56;4376886;32;34048;-88
2023/07/05 01:02:46;;;;;;;11.50;6.03;;;;;;;20.93;63.48;99124.59;4390409;32;34325;-92
2023/07/05 01:05:14;;;;;;;10.50;6.40;;;;;;;20.94;63.42;99123.66;4376678;32;34440;-91
2023/07/05 01:07:41;;;;;;;10.95;6.72;;;;;;;20.74;64.11;99116.37;4376796;32;34111;-90
2023/07/05 01:10:16;;;;;;;12.85;6.35;;;;;;;20.80;63.94;99121.47;4373526;32;32889;-92
2023/07/05 01:13:05;;;;;;;10.53;5.87;;;;;;;20.82;63.77;99118.78;4391619;32;33416;-87
2023/07/05 01:15:42;;;;;;;9.32;6.07;;;;;;;20.80;63.69;99110.94;4391667;32;33987;-87
2023/07/05 01:18:29;;;;;;;12.15;6.25;;;;;;;20.84;63.27;99115.19;4405108;32;34130;-91
2023/07/05 01:21:03;;;;;;;10.65;6.18;;;;;;;20.92;63.22;99116.75;4376647;32;34684;-88
2023/07/05 01:24:18;;;;;;;9.07;5.82;;;;;;;20.77;63.29;99116.28;4389834;32;33463;-88
2023/07/05 01:26:55;;;;;;;11.93;7.53;;;;;;;20.74;63.29;99112.88;4358246;32;33472;-89
2023/07/05 01:29:36;;;;;;;11.57;5.78;;;;;;;20.55;64.10;99107.28;4388986;32;33870;-88
2023/07/05 01:32:20;;;;;;;13.15;6.93;;;;;;;20.63;64.13;99114.03;4398326;32;33944;-88
2023/07/05 01:35:18;;;;;;;9.75;6.60;;;;;;;20.66;64.00;99105.19;4390929;32;34101;-88
2023/07/05 01:37:46;;;;;;;10.75;6.43;;;;;;;20.81;63.61;99110.00;4351429;32;33948;-88
2023/07/05 01:40:20;;;;;;;13.13;6.95;;;;;;;20.68;63.89;99107.78;4388739;32;34668;-88
2023/07/05 01:42:56;;;;;;;12.60;6.47;;;;;;;20.64;64.02;99107.84;4389525;32;34734;-87
2023/07/05 01:46:09;;;;;;;10.40;6.47;;;;;;;20.69;63.93;99115.66;4389734;32;33825;-88
2023/07/05 01:48:58;;;;;;;12.02;7.03;;;;;;;20.59;64.38;99108.91;4364229;32;32415;-92
2023/07/05 01:51:39;;;;;;;12.57;7.55;;;;;;;20.46;64.95;99103.13;4391265;32;34121;-88
2023/07/05 01:54:10;;;;;;;11.57;7.43;;;;;;;20.44;65.35;99110.19;4391663;32;34014;-90
2023/07/05 01:57:05;;;;;;;14.02;7.32;;;;;;;20.45;65.42;99108.41;4391483;32;33780;-89
2023/07/05 01:59:48;;;;;;;12.40;7.37;;;;;;;20.54;65.44;99111.69;4385708;32;34248;-90
2023/07/05 02:02:18;;;;;;;10.27;6.53;;;;;;;20.60;65.23;99106.22;4377891;32;32354;-91
2023/07/05 02:04:46;;;;;;;12.90;7.18;;;;;;;20.50;65.70;99098.66;4389632;32;34472;-92
2023/07/05 02:07:14;;;;;;;11.35;7.28;;;;;;;20.46;65.88;99102.25;4391670;32;33340;-89
2023/07/05 02:09:42;;;;;;;13.70;7.35;;;;;;;20.62;65.48;99099.16;4377609;32;33617;-88
2023/07/05 02:12:10;;;;;;;15.90;7.43;;;;;;;20.49;65.82;99107.41;4390028;32;34712;-88
2023/07/05 02:14:39;;;;;;;11.60;7.00;;;;;;;20.57;65.68;99100.19;4391630;32;34788;-87
2023/07/05 02:17:07;;;;;;;11.82;7.57;;;;;;;20.61;65.14;99105.34;4389927;32;34267;-90
2023/07/05 02:19:35;;;;;;;14.02;7.50;;;;;;;20.52;65.72;99099.47;4390122;32;33527;-89
2023/07/05 02:22:03;;;;;;;11.30;7.10;;;;;;;20.51;66.03;99098.59;4390608;32;33876;-89
2023/07/05 02:24:31;;;;;;;10.73;7.40;;;;;;;20.54;66.00;99095.03;4376298;32;33923;-88
2023/07/05 02:27:02;;;;;;;12.20;7.00;;;;;;;20.64;65.82;99104.38;4399816;32;33874;-90
2023/07/05 02:29:30;;;;;;;11.50;7.65;;;;;;;20.51;66.09;99097.75;4388943;32;33690;-90
2023/07/05 02:31:58;;;;;;;14.50;7.55;;;;;;;20.58;65.83;99101.94;4390099;32;33354;-87
2023/07/05 02:34:27;;;;;;;13.60;7.62;;;;;;;20.46;66.45;99104.88;4390104;32;33690;-90
2023/07/05 02:36:54;;;;;;;14.63;7.47;;;;;;;20.56;66.18;99098.47;4379980;32;32083;-87
2023/07/05 02:39:22;;;;;;;12.90;7.62;;;;;;;20.48;66.50;99092.53;4406313;32;33919;-91
2023/07/05 02:41:49;;;;;;;12.37;7.30;;;;;;;20.38;67.01;99090.16;4406566;32;33920;-87
2023/07/05 02:44:17;;;;;;;16.55;7.70;;;;;;;20.46;66.65;99094.34;4380094;32;34186;-88
2023/07/05 02:46:44;;;;;;;14.25;8.23;;;;;;;20.48;66.55;99100.41;4404286;32;33574;-89
2023/07/05 02:49:12;;;;;;;15.25;8.65;;;;;;;20.45;66.60;99089.97;4400823;32;33770;-92
2023/07/05 02:51:41;;;;;;;16.62;8.95;;;;;;;20.38;67.12;99098.06;4396518;32;34158;-93
2023/07/05 02:54:08;;;;;;;12.52;8.35;;;;;;;20.40;67.61;99098.88;4392560;32;34436;-89
2023/07/05 02:56:36;;;;;;;15.45;9.07;;;;;;;20.52;67.35;99095.06;4399631;32;33832;-88
2023/07/05 02:59:03;;;;;;;16.40;8.63;;;;;;;20.37;67.93;99096.31;4389719;32;34042;-90
2023/07/05 03:01:31;;;;;;;18.00;8.75;;;;;;;20.40;67.87;99098.88;4397869;32;33529;-88
2023/07/05 03:03:58;;;;;;;14.30;8.98;;;;;;;20.52;67.42;99099.47;4405205;32;33546;-91
2023/07/05 03:06:26;;;;;;;14.55;9.05;;;;;;;20.56;67.48;99095.81;4392559;32;34331;-90
2023/07/05 03:08:54;;;;;;;13.02;8.68;;;;;;;20.36;68.46;99099.00;4405519;32;33903;-93
2023/07/05 03:11:21;;;;;;;17.17;10.27;;;;;;;20.44;68.52;99099.63;4380008;32;33510;-88
2023/07/05 03:13:49;;;;;;;15.73;10.02;;;;;;;20.49;68.75;99102.13;4406248;32;34733;-89
2023/07/05 03:16:16;;;;;;;17.02;9.18;;;;;;;20.47;68.99;99093.44;4390934;32;34808;-92
2023/07/05 03:18:44;;;;;;;15.05;9.23;;;;;;;20.55;68.82;99096.75;4404328;32;33654;-89
2023/07/05 03:21:12;;;;;;;14.63;9.50;;;;;;;20.49;68.93;99100.41;4405322;32;35236;-94
2023/07/05 03:23:41;;;;;;;16.37;9.32;;;;;;;20.56;68.87;99099.31;4390503;32;33795;-90
2023/07/05 03:26:09;;;;;;;17.50;9.57;;;;;;;20.42;69.96;99101.47;4392146;32;32967;-92
2023/07/05 03:28:37;;;;;;;14.68;9.52;;;;;;;20.53;69.63;99093.28;4396672;32;34304;-89
2023/07/05 03:31:10;;;;;;;16.98;9.25;;;;;;;20.70;68.96;99101.56;4383778;32;33889;-88
2023/07/05 03:33:39;;;;;;;18.37;10.00;;;;;;;20.70;69.00;99091.03;4405931;32;34821;-88
2023/07/05 03:36:13;;;;;;;17.55;10.13;;;;;;;20.71;69.04;99092.75;4390829;32;33466;-93
2023/07/05 03:38:41;;;;;;;19.98;10.02;;;;;;;20.77;68.84;99102.25;4376790;32;35143;-92
2023/07/05 03:41:12;;;;;;;16.37;9.23;;;;;;;20.84;68.54;99096.75;4390995;32;33737;-94
2023/07/05 03:43:41;;;;;;;16.73;10.32;;;;;;;20.99;68.13;99102.47;4378956;32;33521;-89
2023/07/05 03:46:11;;;;;;;14.38;9.85;;;;;;;20.90;68.28;99093.91;4386014;32;33175;-88
2023/07/05 03:48:41;;;;;;;13.62;9.55;;;;;;;20.88;68.40;99101.03;4377003;32;33420;-88
2023/07/05 03:51:10;;;;;;;18.10;10.45;;;;;;;20.99;68.54;99105.09;4376672;32;33630;-88
2023/07/05 03:53:38;;;;;;;18.02;9.93;;;;;;;21.27;68.51;99099.81;4378858;32;34867;-92
2023/07/05 03:56:08;;;;;;;15.07;9.23;;;;;;;21.47;68.26;99105.34;4371199;32;32222;-90
2023/07/05 03:58:36;;;;;;;14.10;9.68;;;;;;;21.82;66.55;99095.38;4377044;32;33668;-89
2023/07/05 04:01:17;;;;;;;13.73;8.40;;;;;;;21.64;66.32;99096.88;4394611;32;34360;-88
2023/07/05 04:03:48;;;;;;;12.93;8.95;;;;;;;21.94;63.99;99099.41;4392839;32;33745;-90
2023/07/05 04:06:17;;;;;;;13.52;8.65;;;;;;;21.75;64.64;99093.91;4378589;32;33550;-93
2023/07/05 04:08:44;;;;;;;14.23;8.55;;;;;;;22.23;63.51;99101.03;4377165;32;33891;-91
2023/07/05 04:11:12;;;;;;;13.20;8.60;;;;;;;21.96;64.05;99097.56;4379040;32;33626;-92
2023/07/05 04:13:39;;;;;;;12.15;8.25;;;;;;;21.81;64.42;99102.44;4401287;32;33737;-92
2023/07/05 04:16:10;;;;;;;14.27;7.93;;;;;;;22.32;63.17;99106.88;4389343;32;34335;-91
2023/07/05 04:18:39;;;;;;;14.85;8.65;;;;;;;22.69;62.45;99100.25;4376811;32;33992;-89
2023/07/05 04:21:07;;;;;;;13.05;8.45;;;;;;;23.01;60.78;99111.38;4383263;32;34756;-89
2023/07/05 04:23:35;;;;;;;11.20;7.90;;;;;;;23.06;61.19;99099.69;4381021;32;33962;-92
2023/07/05 04:26:08;;;;;;;11.52;6.97;;;;;;;23.36;61.10;99101.19;4393522;32;33758;-90
2023/07/05 04:28:37;;;;;;;12.98;7.05;;;;;;;23.83;59.21;99103.66;4373598;32;33826;-90
2023/07/05 04:31:09;;;;;;;12.13;7.32;;;;;;;24.15;57.99;99103.16;4388375;32;33911;-90
2023/07/05 04:33:37;;;;;;;15.90;8.55;;;;;;;24.36;57.78;99105.78;4375561;32;34076;-89
2023/07/05 04:36:04;;;;;;;14.60;9.10;;;;;;;24.38;58.36;99109.25;4389259;32;33204;-90
2023/07/05 04:38:49;;;;;;;14.87;8.05;;;;;;;24.13;59.20;99112.09;4393903;32;34020;-90
2023/07/05 04:41:17;;;;;;;11.38;7.57;;;;;;;23.75;60.26;99107.53;4405745;32;34274;-92
2023/07/05 04:43:44;;;;;;;13.27;8.05;;;;;;;24.01;58.52;99113.47;4391814;32;34338;-90
2023/07/05 04:46:13;;;;;;;11.07;7.32;;;;;;;24.39;58.11;99110.97;4380237;32;33284;-89
2023/07/05 04:48:41;;;;;;;15.05;8.20;;;;;;;25.15;56.19;99109.25;4390726;32;35352;-91
2023/07/05 04:51:08;;;;;;;15.10;8.48;;;;;;;25.46;55.05;99114.84;4390395;32;33819;-93
2023/07/05 04:53:36;;;;;;;12.63;8.48;;;;;;;25.89;54.10;99111.84;4390734;32;33479;-92
2023/07/05 04:56:04;;;;;;;16.65;10.35;;;;;;;25.98;54.09;99113.19;4390341;32;33578;-91
2023/07/05 04:58:31;;;;;;;21.50;10.23;;;;;;;26.12;53.18;99122.16;4390412;32;33918;-88
2023/07/05 05:01:02;;;;;;;15.80;9.07;;;;;;;26.05;52.38;99110.13;4392371;32;34076;-90
2023/07/05 05:03:30;;;;;;;14.02;8.48;;;;;;;25.90;53.87;99113.56;4391231;32;34736;-92
2023/07/05 05:05:58;;;;;;;11.98;7.85;;;;;;;25.56;54.47;99114.38;4377786;32;33930;-91
2023/07/05 05:08:25;;;;;;;14.10;9.45;;;;;;;25.44;55.62;99118.47;4392144;32;33742;-89
2023/07/05 05:10:56;;;;;;;18.00;10.07;;;;;;;26.10;53.81;99118.75;4375811;32;35027;-89
2023/07/05 05:13:24;;;;;;;17.40;10.32;;;;;;;26.05;53.30;99115.44;4377761;32;34356;-90
2023/07/05 05:15:52;;;;;;;19.37;10.63;;;;;;;25.97;53.07;99114.97;4376199;32;34443;-90
2023/07/05 05:18:21;;;;;;;15.85;10.60;;;;;;;25.14;55.62;99116.37;4376121;32;33756;-89
2023/07/05 05:20:48;;;;;;;16.08;10.65;;;;;;;25.84;54.14;99112.09;4374757;32;34060;-93
2023/07/05 05:23:16;;;;;;;16.55;9.93;;;;;;;25.61;53.62;99123.84;4365603;32;33999;-90
2023/07/05 05:25:45;;;;;;;18.80;10.20;;;;;;;26.16;52.31;99120.19;4389919;32;34029;-87
2023/07/05 05:28:13;;;;;;;17.87;10.43;;;;;;;25.44;53.63;99113.19;4376337;32;33936;-88
2023/07/05 05:30:43;;;;;;;20.25;9.98;;;;;;;25.19;56.24;99122.34;4363828;32;34802;-89
2023/07/05 05:33:13;;;;;;;18.23;10.73;;;;;;;25.68;55.65;99113.75;4376319;32;33263;-89
2023/07/05 05:35:46;;;;;;;16.00;9.60;;;;;;;25.83;53.04;99114.81;4396708;32;33772;-91
2023/07/05 05:38:15;;;;;;;18.02;9.57;;;;;;;26.48;51.94;99118.56;4384189;32;33602;-90
2023/07/05 05:40:43;;;;;;;18.62;10.27;;;;;;;26.77;51.87;99111.66;4374248;32;34021;-92
2023/07/05 05:43:11;;;;;;;18.95;8.88;;;;;;;26.64;51.56;99119.44;4377086;32;34408;-89
2023/07/05 05:45:38;;;;;;;17.58;9.27;;;;;;;27.15;50.69;99116.69;4397263;32;33689;-89
2023/07/05 05:48:06;;;;;;;12.37;7.30;;;;;;;27.51;50.80;99115.56;4391140;32;34730;-91
2023/07/05 05:50:35;;;;;;;13.48;7.65;;;;;;;27.21;51.37;99112.84;4377325;32;34021;-89
2023/07/05 05:53:02;;;;;;;13.95;7.68;;;;;;;27.93;49.93;99112.22;4361270;32;34754;-90
2023/07/05 05:55:30;;;;;;;13.40;6.97;;;;;;;27.77;48.32;99100.75;4392491;32;33895;-89
2023/07/05 05:57:57;;;;;;;13.30;7.40;;;;;;;27.84;48.54;99099.44;4388580;32;33794;-93
2023/07/05 06:00:25;;;;;;;12.50;7.18;;;;;;;27.85;48.76;99103.84;4388070;32;35620;-89
2023/07/05 06:02:53;;;;;;;11.70;7.12;;;;;;;28.04;47.69;99099.13;4388646;32;34832;-88
2023/07/05 06:05:21;;;;;;;11.38;6.70;;;;;;;27.28;49.70;99108.91;4388564;32;32898;-91
2023/07/05 06:07:48;;;;;;;13.43;7.60;;;;;;;27.96;48.77;99100.50;4365679;32;33788;-91
2023/07/05 06:10:16;;;;;;;12.65;7.68;;;;;;;27.95;48.59;99101.47;4363459;32;33972;-91
2023/07/05 06:12:43;;;;;;;14.52;8.30;;;;;;;26.82;50.70;99104.31;4375741;32;33355;-90
2023/07/05 06:15:13;;;;;;;13.02;7.78;;;;;;;26.14;53.21;99099.03;4392077;32;33015;-90
2023/07/05 06:17:41;;;;;;;10.88;7.03;;;;;;;27.17;51.68;99101.50;4379259;32;33885;-92
2023/07/05 06:20:10;;;;;;;11.27;7.15;;;;;;;27.20;49.77;99097.81;4374508;32;33700;-90
2023/07/05 06:22:39;;;;;;;11.43;6.85;;;;;;;27.69;49.99;99092.31;4374763;32;35061;-92
2023/07/05 06:25:07;;;;;;;13.82;6.95;;;;;;;27.90;48.17;99083.09;4377346;32;34148;-91
2023/07/05 06:27:34;;;;;;;12.60;6.95;;;;;;;27.96;48.13;99095.19;4386526;32;34010;-92
2023/07/05 06:30:03;;;;;;;11.98;6.30;;;;;;;27.95;48.87;99094.31;4388042;32;34551;-88
2023/07/05 06:32:32;;;;;;;12.68;6.80;;;;;;;28.44;46.73;99093.19;4375232;32;33135;-94
2023/07/05 06:35:00;;;;;;;16.50;8.27;;;;;;;28.09;48.38;99091.69;4378953;32;33510;-93
2023/07/05 06:37:28;;;;;;;15.73;8.07;;;;;;;28.22;47.02;99098.94;4396151;32;33695;-89
2023/07/05 06:39:55;;;;;;;13.45;6.87;;;;;;;27.63;48.17;99093.53;4406303;32;34889;-90
2023/07/05 06:42:23;;;;;;;11.65;6.85;;;;;;;28.32;47.87;99097.44;4404490;32;33647;-91
2023/07/05 06:44:53;;;;;;;16.62;7.97;;;;;;;28.05;47.90;99094.66;4391641;32;33859;-92
2023/07/05 06:47:21;;;;;;;14.32;8.07;;;;;;;28.29;48.88;99090.47;4404657;32;33714;-93
2023/07/05 06:49:49;;;;;;;16.50;8.20;;;;;;;27.95;47.77;99097.00;4391581;32;33670;-90
2023/07/05 06:52:16;;;;;;;12.50;7.05;;;;;;;28.28;47.25;99090.59;4405249;32;34170;-91
2023/07/05 06:54:44;;;;;;;16.27;9.05;;;;;;;28.48;48.17;99095.56;4377658;32;34402;-91
2023/07/05 06:57:11;;;;;;;16.50;8.55;;;;;;;28.18;47.96;99084.09;4404291;32;34843;-93
2023/07/05 06:59:43;;;;;;;15.38;8.50;;;;;;;27.94;48.65;99092.63;4391579;32;34284;-89
2023/07/05 07:02:12;;;;;;;15.38;7.95;;;;;;;28.85;47.15;99093.28;4405500;32;33945;-91
2023/07/05 07:04:39;;;;;;;15.65;7.68;;;;;;;28.81;45.16;99086.41;4404342;32;34308;-92
2023/07/05 07:07:07;;;;;;;13.10;7.82;;;;;;;27.97;47.65;99092.44;4404432;32;33828;-94
2023/07/05 07:09:35;;;;;;;14.52;7.75;;;;;;;28.29;47.37;99090.47;4389987;32;33678;-91
2023/07/05 07:12:05;;;;;;;12.60;6.57;;;;;;;28.08;48.08;99090.00;4394994;32;34457;-91
2023/07/05 07:14:32;;;;;;;12.90;8.32;;;;;;;28.22;47.52;99090.94;4405816;32;33323;-88
2023/07/05 07:17:00;;;;;;;13.15;7.80;;;;;;;28.33;47.66;99083.16;4379637;32;33403;-86
2023/07/05 07:19:28;;;;;;;13.80;7.78;;;;;;;28.80;47.59;99088.22;4406016;32;34192;-89
2023/07/05 07:21:55;;;;;;;16.75;8.68;;;;;;;28.57;47.28;99087.00;4405962;32;33971;-90
2023/07/05 07:24:24;;;;;;;13.95;7.72;;;;;;;28.19;46.89;99086.69;4405972;32;33388;-89
2023/07/05 07:26:52;;;;;;;12.93;7.12;;;;;;;28.56;46.45;99090.66;4390917;32;33779;-89
2023/07/05 07:29:19;;;;;;;14.10;7.47;;;;;;;28.82;46.37;99080.13;4391083;32;33739;-89
2023/07/05 07:31:47;;;;;;;13.13;7.20;;;;;;;28.23;46.18;99084.69;4405260;32;33258;-90
2023/07/05 07:34:16;;;;;;;14.48;7.90;;;;;;;28.34;45.74;99084.88;4392165;32;33133;-94
2023/07/05 07:36:45;;;;;;;15.88;7.07;;;;;;;27.96;46.19;99090.72;4391056;32;33993;-89
2023/07/05 07:39:14;;;;;;;13.90;6.43;;;;;;;28.40;44.74;99079.19;4376487;32;33990;-88
2023/07/05 07:41:41;;;;;;;11.65;6.62;;;;;;;28.25;46.06;99091.63;4391714;32;34273;-94
2023/07/05 07:44:10;;;;;;;12.02;7.57;;;;;;;28.52;45.35;99086.41;4378024;32;32176;-92
2023/07/05 07:46:39;;;;;;;13.85;7.32;;;;;;;28.68;45.33;99080.13;4390688;32;33856;-87
2023/07/05 07:49:08;;;;;;;14.82;8.20;;;;;;;28.53;45.09;99080.16;4400149;32;34859;-88
2023/07/05 07:51:37;;;;;;;11.90;6.60;;;;;;;28.05;46.47;99084.84;4391602;32;34013;-89
2023/07/05 07:54:12;;;;;;;13.68;6.93;;;;;;;28.41;44.81;99080.91;4378199;32;33504;-90
2023/07/05 07:56:44;;;;;;;14.68;6.43;;;;;;;28.30;46.44;99084.22;4390354;32;33876;-89
2023/07/05 07:59:13;;;;;;;10.70;6.05;;;;;;;28.29;45.46;99081.63;4403075;32;34614;-88
2023/07/05 08:01:41;;;;;;;11.35;6.22;;;;;;;28.25;44.79;99080.97;4403034;32;33874;-87
2023/07/05 08:04:10;;;;;;;12.98;7.30;;;;;;;28.45;46.31;99079.78;4391019;32;34208;-86
2023/07/05 08:06:47;;;;;;;12.70;6.82;;;;;;;27.60;45.68;99078.59;4388878;32;34673;-87
2023/07/05 08:09:17;;;;;;;10.95;7.40;;;;;;;27.32;46.77;99095.31;4391283;32;33865;-89
2023/07/05 08:11:45;;;;;;;15.15;7.50;;;;;;;27.54;46.65;99078.97;4389793;32;33636;-87
2023/07/05 08:14:13;;;;;;;13.60;6.82;;;;;;;27.93;46.96;99090.06;4391317;32;33453;-88
2023/07/05 08:16:41;;;;;;;12.20;6.55;;;;;;;28.06;45.53;99088.34;4389364;32;34644;-89
2023/07/05 08:19:09;;;;;;;12.63;7.20;;;;;;;28.32;46.18;99086.78;4383488;32;34050;-90
2023/07/05 08:21:36;;;;;;;13.93;7.60;;;;;;;28.28;46.11;99079.91;4403177;32;35136;-90
2023/07/05 08:24:05;;;;;;;12.82;6.87;;;;;;;28.22;46.22;99075.81;4386076;32;33461;-90
2023/07/05 08:26:54;;;;;;;11.23;6.78;;;;;;;28.64;46.15;99075.94;4392830;32;34457;-90
2023/07/05 08:29:22;;;;;;;11.40;6.62;;;;;;;28.81;45.99;99084.59;4379541;32;34044;-88
2023/07/05 08:31:50;;;;;;;11.65;6.35;;;;;;;28.66;44.11;99076.72;4390784;32;32886;-88
2023/07/05 08:34:18;;;;;;;15.10;7.45;;;;;;;29.12;43.95;99079.13;4405339;32;33497;-88
2023/07/05 08:36:46;;;;;;;12.50;7.47;;;;;;;28.98;43.80;99080.03;4377479;32;34004;-91
2023/07/05 08:39:14;;;;;;;11.80;7.10;;;;;;;28.67;43.52;99075.75;4404526;32;34126;-89
2023/07/05 08:41:42;;;;;;;10.98;6.50;;;;;;;28.96;45.09;99077.44;4389905;32;34486;-90
2023/07/05 08:44:29;;;;;;;12.88;6.65;;;;;;;28.57;43.95;99086.16;4390041;32;33450;-90
2023/07/05 08:47:08;;;;;;;13.15;6.50;;;;;;;28.69;43.48;99084.53;4404530;32;33802;-90
2023/07/05 08:49:41;;;;;;;12.13;7.15;;;;;;;28.96;43.79;99088.09;4403527;32;34356;-90
2023/07/05 08:52:18;;;;;;;11.60;6.70;;;;;;;28.99;44.64;99082.62;4390053;32;34930;-90
2023/07/05 08:54:47;;;;;;;12.37;6.90;;;;;;;28.95;44.35;99080.22;4391774;32;33625;-89
2023/07/05 08:57:23;;;;;;;11.90;7.37;;;;;;;28.66;44.37;99085.56;4378353;32;33313;-90
2023/07/05 08:59:56;;;;;;;16.20;8.63;;;;;;;28.46;42.42;99094.81;4367494;32;33989;-88
2023/07/05 09:02:24;;;;;;;12.40;7.30;;;;;;;28.57;42.95;99084.34;4387671;32;33620;-90
2023/07/05 09:04:53;;;;;;;18.75;8.07;;;;;;;28.97;43.90;99081.81;4391507;32;33384;-88
2023/07/05 09:07:34;;;;;;;16.75;7.40;;;;;;;28.99;44.36;99077.28;4391199;32;34709;-88
2023/07/05 09:10:22;;;;;;;12.93;7.25;;;;;;;29.38;44.19;99083.62;4388330;32;33060;-88
2023/07/05 09:13:22;;;;;;;11.88;7.00;;;;;;;28.36;46.83;99074.97;4391164;32;33982;-92
2023/07/05 09:15:50;;;;;;;12.95;7.57;;;;;;;28.72;44.31;99081.69;4383213;32;31624;-88
2023/07/05 09:18:35;;;;;;;11.43;7.47;;;;;;;28.62;45.19;99079.56;4389924;32;33171;-92
2023/07/05 09:21:28;;;;;;;14.27;7.72;;;;;;;29.10;43.84;99068.56;4367398;32;33776;-90
2023/07/05 09:24:06;;;;;;;15.55;7.18;;;;;;;29.19;43.23;99067.97;4404133;32;34081;-92
2023/07/05 09:26:37;;;;;;;11.55;7.00;;;;;;;29.40;42.59;99067.50;4402090;32;33145;-92
2023/07/05 09:29:08;;;;;;;13.65;6.93;;;;;;;29.85;41.97;99071.59;4366194;32;33265;-89
2023/07/05 09:31:38;;;;;;;12.73;7.53;;;;;;;29.77;41.15;99068.59;4375897;32;32958;-87
2023/07/05 09:34:43;;;;;;;12.15;7.40;;;;;;;29.99;41.51;99065.31;4371261;32;34077;-87
2023/07/05 09:37:23;;;;;;;11.27;7.37;;;;;;;30.04;40.79;99064.06;4398123;32;34039;-85
2023/07/05 09:39:59;;;;;;;13.23;6.60;;;;;;;29.87;41.42;99069.69;4387642;32;33665;-89
2023/07/05 09:42:36;;;;;;;10.57;6.43;;;;;;;29.47;41.18;99061.69;4389635;32;33734;-89
2023/07/05 09:45:14;;;;;;;11.82;6.97;;;;;;;29.79;39.31;99061.34;4353714;32;34782;-87
2023/07/05 09:47:44;;;;;;;13.15;7.30;;;;;;;29.80;41.73;99057.72;4375983;32;33207;-92
2023/07/05 09:50:13;;;;;;;11.40;6.40;;;;;;;29.39;41.22;99058.63;4375879;32;35550;-87
2023/07/05 09:52:41;;;;;;;10.50;6.22;;;;;;;29.64;42.23;99057.91;4386411;32;34179;-88
2023/07/05 09:55:14;;;;;;;13.00;6.37;;;;;;;29.45;40.33;99049.38;4390728;32;34325;-88
2023/07/05 09:57:42;;;;;;;11.07;6.50;;;;;;;29.61;39.32;99049.22;4385850;32;33510;-88
2023/07/05 10:00:35;;;;;;;11.85;6.65;;;;;;;29.62;40.11;99049.09;4398632;32;33892;-88
2023/07/05 10:03:09;;;;;;;13.70;7.53;;;;;;;29.08;41.23;99049.97;4389596;32;33980;-90
2023/07/05 10:05:38;;;;;;;11.73;6.53;;;;;;;29.11;41.89;99043.59;4390191;32;33747;-87
2023/07/05 10:08:14;;;;;;;11.43;6.97;;;;;;;29.02;43.44;99047.72;4404586;32;33521;-86
2023/07/05 10:10:42;;;;;;;11.35;5.62;;;;;;;29.27;42.12;99048.78;4391261;32;33614;-88
2023/07/05 10:13:16;;;;;;;12.18;6.18;;;;;;;29.73;41.19;99051.91;4378578;32;33316;-87
2023/07/05 10:15:49;;;;;;;11.65;6.07;;;;;;;29.94;39.46;99054.09;4390943;32;33926;-88
2023/07/05 10:18:31;;;;;;;10.48;6.25;;;;;;;29.91;38.94;99048.97;4378590;32;34474;-87
2023/07/05 10:21:04;;;;;;;9.90;6.18;;;;;;;30.12;38.72;99049.28;4405023;32;34147;-88
2023/07/05 10:23:35;;;;;;;15.63;6.37;;;;;;;29.77;38.60;99042.72;4391117;32;33836;-87
2023/07/05 10:26:05;;;;;;;11.60;6.12;;;;;;;30.02;38.05;99031.22;4391204;32;34634;-88
2023/07/05 10:28:36;;;;;;;13.13;6.28;;;;;;;30.38;38.09;99034.97;4391189;32;33278;-88
2023/07/05 10:31:04;;;;;;;12.02;6.35;;;;;;;30.37;38.44;99035.94;4376414;32;34653;-87
2023/07/05 10:33:37;;;;;;;11.57;6.10;;;;;;;30.15;37.97;99030.34;4370918;32;32559;-86
2023/07/05 10:36:14;;;;;;;10.95;6.05;;;;;;;30.00;39.47;99032.28;4397028;32;34583;-89
2023/07/05 10:38:45;;;;;;;11.65;6.00;;;;;;;30.10;39.79;99033.34;4404990;32;33467;-94
2023/07/05 10:41:21;;;;;;;10.40;5.62;;;;;;;30.28;37.78;99026.75;4378955;32;33796;-86
2023/07/05 10:43:57;;;;;;;13.48;6.80;;;;;;;30.13;38.33;99032.28;4377735;32;35151;-90
2023/07/05 10:46:26;;;;;;;16.12;6.40;;;;;;;30.39;38.30;99022.47;4383589;32;33190;-88
2023/07/05 10:48:55;;;;;;;11.32;6.35;;;;;;;30.09;40.08;99020.09;4385275;32;33879;-88
2023/07/05 10:51:25;;;;;;;10.88;7.03;;;;;;;30.33;38.20;99033.59;4379048;32;33902;-86
2023/07/05 10:54:09;;;;;;;10.90;6.10;;;;;;;30.47;39.69;99031.66;4392407;32;33842;-89
2023/07/05 10:56:37;;;;;;;13.88;6.72;;;;;;;30.59;37.88;99026.37;4392681;32;34738;-89
2023/07/05 10:59:29;;;;;;;11.30;6.55;;;;;;;30.35;37.32;99026.34;4392591;32;33473;-90
2023/07/05 11:02:13;;;;;;;11.70;6.35;;;;;;;29.74;37.64;99023.41;4393107;32;34806;-87
2023/07/05 11:04:43;;;;;;;13.05;6.47;;;;;;;29.96;36.57;99020.94;4391716;32;34228;-89
2023/07/05 11:07:12;;;;;;;10.35;5.90;;;;;;;29.92;37.01;99013.25;4392375;32;33659;-89
2023/07/05 11:09:41;;;;;;;19.98;6.68;;;;;;;29.81;38.68;99012.19;4392553;32;33302;-92
2023/07/05 11:12:20;;;;;;;11.27;6.55;;;;;;;30.03;40.91;99011.53;4392534;32;33164;-91
2023/07/05 11:14:49;;;;;;;11.02;6.47;;;;;;;30.32;37.49;99003.31;4403043;32;33978;-88
2023/07/05 11:17:23;;;;;;;14.73;7.05;;;;;;;30.54;36.62;98999.97;4364018;32;33420;-88
2023/07/05 11:19:51;;;;;;;13.23;6.37;;;;;;;30.42;39.22;99012.41;4379863;32;32956;-92
2023/07/05 11:22:51;;;;;;;11.27;7.12;;;;;;;30.05;38.86;99004.28;4378797;32;33643;-91
2023/07/05 11:25:19;;;;;;;12.77;7.60;;;;;;;30.29;36.34;98992.84;4361265;32;33873;-89
2023/07/05 11:27:54;;;;;;;11.65;7.30;;;;;;;30.70;34.97;98989.00;4402726;32;34025;-92
2023/07/05 11:30:40;;;;;;;12.93;6.57;;;;;;;30.28;36.82;98989.31;4393036;32;33635;-87
2023/07/05 11:33:08;;;;;;;12.02;5.72;;;;;;;29.97;37.94;98990.59;4392923;32;34061;-91
2023/07/05 11:35:43;;;;;;;9.77;5.70;;;;;;;30.19;36.06;98995.31;4376851;32;34183;-94
2023/07/05 11:38:36;;;;;;;10.85;7.20;;;;;;;30.35;37.04;98983.53;4390441;32;33830;-84
2023/07/05 11:41:06;;;;;;;12.10;6.20;;;;;;;30.09;38.18;98986.19;4406056;32;33001;-86
2023/07/05 11:43:34;;;;;;;11.52;6.43;;;;;;;30.30;39.75;98982.00;4392262;32;34814;-87